sensor_id;sensor_type;location;lat;lon;timestamp;pressure;altitude;pressure_sealevel;temperature;humidity
17311;BME280;8773;43.300;0.394;2023-02-12T00:01:07;101259.81;;;2.68;59.40
17311;BME280;8773;43.300;0.394;2023-02-12T00:03:38;101249.16;;;2.71;59.54
17311;BME280;8773;43.300;0.394;2023-02-12T00:06:07;101249.00;;;2.74;58.95
17311;BME280;8773;43.300;0.394;2023-02-12T00:08:37;101248.16;;;2.73;58.65
17311;BME280;8773;43.300;0.394;2023-02-12T00:11:10;101251.72;;;2.72;58.79
17311;BME280;8773;43.300;0.394;2023-02-12T00:13:39;101256.13;;;2.72;59.02
17311;BME280;8773;43.300;0.394;2023-02-12T00:16:08;101251.78;;;2.71;58.65
17311;BME280;8773;43.300;0.394;2023-02-12T00:18:38;101250.13;;;2.68;58.69
17311;BME280;8773;43.300;0.394;2023-02-12T00:21:06;101249.41;;;2.65;59.64
17311;BME280;8773;43.300;0.394;2023-02-12T00:23:35;101243.34;;;2.63;59.34
17311;BME280;8773;43.300;0.394;2023-02-12T00:26:06;101242.84;;;2.55;59.68
17311;BME280;8773;43.300;0.394;2023-02-12T00:28:34;101235.97;;;2.51;59.43
17311;BME280;8773;43.300;0.394;2023-02-12T00:31:06;101242.31;;;2.47;59.95
17311;BME280;8773;43.300;0.394;2023-02-12T00:33:34;101236.84;;;2.51;59.86
17311;BME280;8773;43.300;0.394;2023-02-12T00:36:05;101232.56;;;2.49;59.90
17311;BME280;8773;43.300;0.394;2023-02-12T00:38:33;101224.22;;;2.39;60.02
17311;BME280;8773;43.300;0.394;2023-02-12T00:41:02;101225.06;;;2.39;60.04
17311;BME280;8773;43.300;0.394;2023-02-12T00:43:30;101225.28;;;2.35;59.69
17311;BME280;8773;43.300;0.394;2023-02-12T00:45:58;101224.81;;;2.25;59.99
17311;BME280;8773;43.300;0.394;2023-02-12T00:48:26;101224.94;;;2.22;60.21
17311;BME280;8773;43.300;0.394;2023-02-12T00:50:55;101223.09;;;2.24;59.97
17311;BME280;8773;43.300;0.394;2023-02-12T00:53:24;101218.69;;;2.25;60.23
17311;BME280;8773;43.300;0.394;2023-02-12T00:55:52;101217.25;;;2.18;60.21
17311;BME280;8773;43.300;0.394;2023-02-12T00:58:21;101216.50;;;2.14;59.87
17311;BME280;8773;43.300;0.394;2023-02-12T01:00:49;101215.91;;;2.07;60.73
17311;BME280;8773;43.300;0.394;2023-02-12T01:03:17;101212.09;;;2.15;60.54
17311;BME280;8773;43.300;0.394;2023-02-12T01:05:46;101213.47;;;2.03;60.69
17311;BME280;8773;43.300;0.394;2023-02-12T01:08:15;101214.19;;;2.06;60.84
17311;BME280;8773;43.300;0.394;2023-02-12T01:10:54;101210.84;;;2.03;60.46
17311;BME280;8773;43.300;0.394;2023-02-12T01:13:23;101215.31;;;2.01;60.35
17311;BME280;8773;43.300;0.394;2023-02-12T01:16:01;101217.09;;;2.00;60.66
17311;BME280;8773;43.300;0.394;2023-02-12T01:18:30;101217.94;;;2.01;61.06
17311;BME280;8773;43.300;0.394;2023-02-12T01:20:58;101213.63;;;2.00;60.35
17311;BME280;8773;43.300;0.394;2023-02-12T01:23:29;101218.75;;;2.03;60.45
17311;BME280;8773;43.300;0.394;2023-02-12T01:26:01;101231.28;;;1.98;60.23
17311;BME280;8773;43.300;0.394;2023-02-12T01:28:29;101217.56;;;1.90;60.30
17311;BME280;8773;43.300;0.394;2023-02-12T01:30:57;101222.41;;;1.78;61.05
17311;BME280;8773;43.300;0.394;2023-02-12T01:33:25;101220.84;;;1.74;60.79
17311;BME280;8773;43.300;0.394;2023-02-12T01:35:53;101220.16;;;1.69;60.95
17311;BME280;8773;43.300;0.394;2023-02-12T01:38:21;101224.13;;;1.80;60.95
17311;BME280;8773;43.300;0.394;2023-02-12T01:40:49;101218.75;;;1.83;60.45
17311;BME280;8773;43.300;0.394;2023-02-12T01:43:19;101221.91;;;1.91;60.01
17311;BME280;8773;43.300;0.394;2023-02-12T01:45:50;101221.06;;;1.90;60.24
17311;BME280;8773;43.300;0.394;2023-02-12T01:48:22;101219.09;;;1.95;59.82
17311;BME280;8773;43.300;0.394;2023-02-12T01:50:53;101206.06;;;1.92;60.15
17311;BME280;8773;43.300;0.394;2023-02-12T01:53:24;101216.66;;;1.91;59.99
17311;BME280;8773;43.300;0.394;2023-02-12T01:55:57;101212.25;;;1.91;59.67
17311;BME280;8773;43.300;0.394;2023-02-12T01:58:30;101216.97;;;1.83;60.45
17311;BME280;8773;43.300;0.394;2023-02-12T02:01:02;101210.91;;;1.81;59.89
17311;BME280;8773;43.300;0.394;2023-02-12T02:03:32;101213.53;;;1.81;60.30
17311;BME280;8773;43.300;0.394;2023-02-12T02:06:05;101207.34;;;1.82;60.25
17311;BME280;8773;43.300;0.394;2023-02-12T02:08:36;101213.59;;;1.80;59.93
17311;BME280;8773;43.300;0.394;2023-02-12T02:11:05;101214.53;;;1.78;59.76
17311;BME280;8773;43.300;0.394;2023-02-12T02:13:55;101213.06;;;1.71;59.94
17311;BME280;8773;43.300;0.394;2023-02-12T02:16:44;101204.13;;;1.75;60.30
17311;BME280;8773;43.300;0.394;2023-02-12T02:19:25;101203.66;;;1.22;61.65
17311;BME280;8773;43.300;0.394;2023-02-12T02:22:10;101201.97;;;1.43;61.13
17311;BME280;8773;43.300;0.394;2023-02-12T02:25:06;101191.78;;;1.56;60.79
17311;BME280;8773;43.300;0.394;2023-02-12T02:27:47;101192.13;;;1.68;60.08
17311;BME280;8773;43.300;0.394;2023-02-12T02:30:33;101200.09;;;1.67;60.12
17311;BME280;8773;43.300;0.394;2023-02-12T02:33:12;101197.50;;;1.65;59.69
17311;BME280;8773;43.300;0.394;2023-02-12T02:35:48;101195.53;;;1.70;59.86
17311;BME280;8773;43.300;0.394;2023-02-12T02:38:24;101190.28;;;1.70;60.14
17311;BME280;8773;43.300;0.394;2023-02-12T02:41:02;101190.53;;;1.64;59.81
17311;BME280;8773;43.300;0.394;2023-02-12T02:43:34;101185.13;;;1.67;59.81
17311;BME280;8773;43.300;0.394;2023-02-12T02:46:08;101186.97;;;1.65;59.88
17311;BME280;8773;43.300;0.394;2023-02-12T02:48:43;101185.28;;;1.64;60.09
17311;BME280;8773;43.300;0.394;2023-02-12T02:51:17;101182.03;;;1.58;60.23
17311;BME280;8773;43.300;0.394;2023-02-12T02:53:51;101182.88;;;1.58;60.37
17311;BME280;8773;43.300;0.394;2023-02-12T02:56:22;101183.97;;;1.54;60.76
17311;BME280;8773;43.300;0.394;2023-02-12T02:58:54;101182.94;;;1.57;60.16
17311;BME280;8773;43.300;0.394;2023-02-12T03:01:28;101177.09;;;1.50;60.22
17311;BME280;8773;43.300;0.394;2023-02-12T03:04:01;101172.09;;;1.44;59.87
17311;BME280;8773;43.300;0.394;2023-02-12T03:06:35;101168.66;;;1.42;60.52
17311;BME280;8773;43.300;0.394;2023-02-12T03:09:12;101171.41;;;1.39;60.66
17311;BME280;8773;43.300;0.394;2023-02-12T03:11:43;101164.44;;;1.38;60.40
17311;BME280;8773;43.300;0.394;2023-02-12T03:14:14;101168.66;;;1.42;60.43
17311;BME280;8773;43.300;0.394;2023-02-12T03:16:50;101159.84;;;1.43;59.38
17311;BME280;8773;43.300;0.394;2023-02-12T03:19:22;101158.94;;;1.44;59.32
17311;BME280;8773;43.300;0.394;2023-02-12T03:21:56;101162.31;;;1.48;59.76
17311;BME280;8773;43.300;0.394;2023-02-12T03:24:29;101164.50;;;1.36;59.69
17311;BME280;8773;43.300;0.394;2023-02-12T03:27:03;101169.78;;;1.36;59.70
17311;BME280;8773;43.300;0.394;2023-02-12T03:29:33;101164.44;;;1.38;60.02
17311;BME280;8773;43.300;0.394;2023-02-12T03:32:19;101161.00;;;1.36;59.68
17311;BME280;8773;43.300;0.394;2023-02-12T03:34:53;101167.81;;;1.41;59.71
17311;BME280;8773;43.300;0.394;2023-02-12T03:37:27;101174.78;;;1.42;59.63
17311;BME280;8773;43.300;0.394;2023-02-12T03:39:58;101174.78;;;1.42;60.14
17311;BME280;8773;43.300;0.394;2023-02-12T03:42:34;101171.53;;;1.36;60.22
17311;BME280;8773;43.300;0.394;2023-02-12T03:45:09;101174.16;;;1.36;60.31
17311;BME280;8773;43.300;0.394;2023-02-12T03:47:46;101173.63;;;1.28;60.48
17311;BME280;8773;43.300;0.394;2023-02-12T03:50:17;101178.09;;;1.26;60.03
17311;BME280;8773;43.300;0.394;2023-02-12T03:52:49;101170.75;;;1.34;59.90
17311;BME280;8773;43.300;0.394;2023-02-12T03:55:17;101181.16;;;1.37;59.64
17311;BME280;8773;43.300;0.394;2023-02-12T03:57:49;101175.88;;;1.37;59.35
17311;BME280;8773;43.300;0.394;2023-02-12T04:00:20;101175.94;;;1.35;59.48
17311;BME280;8773;43.300;0.394;2023-02-12T04:02:50;101174.22;;;1.34;59.65
17311;BME280;8773;43.300;0.394;2023-02-12T04:05:23;101165.72;;;1.28;59.57
17311;BME280;8773;43.300;0.394;2023-02-12T04:07:53;101173.44;;;1.32;59.52
17311;BME280;8773;43.300;0.394;2023-02-12T04:10:27;101172.53;;;1.33;59.29
17311;BME280;8773;43.300;0.394;2023-02-12T04:13:04;101170.00;;;1.30;60.06
17311;BME280;8773;43.300;0.394;2023-02-12T04:15:50;101170.31;;;1.23;60.19
17311;BME280;8773;43.300;0.394;2023-02-12T04:18:26;101171.34;;;1.19;60.19
17311;BME280;8773;43.300;0.394;2023-02-12T04:21:01;101169.69;;;1.16;60.32
17311;BME280;8773;43.300;0.394;2023-02-12T04:23:43;101175.09;;;1.13;60.38
17311;BME280;8773;43.300;0.394;2023-02-12T04:26:20;101173.25;;;1.15;60.36
17311;BME280;8773;43.300;0.394;2023-02-12T04:28:56;101169.75;;;1.15;60.08
17311;BME280;8773;43.300;0.394;2023-02-12T04:31:32;101168.50;;;1.03;60.29
17311;BME280;8773;43.300;0.394;2023-02-12T04:34:10;101173.75;;;1.03;60.40
17311;BME280;8773;43.300;0.394;2023-02-12T04:36:44;101170.81;;;1.10;59.98
17311;BME280;8773;43.300;0.394;2023-02-12T04:39:18;101167.06;;;0.94;61.04
17311;BME280;8773;43.300;0.394;2023-02-12T04:41:48;101171.47;;;0.94;60.72
17311;BME280;8773;43.300;0.394;2023-02-12T04:44:18;101178.09;;;1.04;60.63
17311;BME280;8773;43.300;0.394;2023-02-12T04:46:48;101176.16;;;1.09;60.12
17311;BME280;8773;43.300;0.394;2023-02-12T04:49:19;101180.56;;;1.08;60.21
17311;BME280;8773;43.300;0.394;2023-02-12T04:51:48;101172.03;;;1.02;60.34
17311;BME280;8773;43.300;0.394;2023-02-12T04:54:18;101183.41;;;1.02;59.92
17311;BME280;8773;43.300;0.394;2023-02-12T04:56:47;101185.94;;;1.05;60.12
17311;BME280;8773;43.300;0.394;2023-02-12T04:59:15;101188.50;;;1.07;59.77
17311;BME280;8773;43.300;0.394;2023-02-12T05:01:44;101191.59;;;0.95;60.52
17311;BME280;8773;43.300;0.394;2023-02-12T05:04:14;101191.31;;;1.02;59.88
17311;BME280;8773;43.300;0.394;2023-02-12T05:06:44;101198.84;;;0.88;60.24
17311;BME280;8773;43.300;0.394;2023-02-12T05:09:14;101197.88;;;0.91;59.83
17311;BME280;8773;43.300;0.394;2023-02-12T05:11:43;101194.56;;;0.86;59.89
17311;BME280;8773;43.300;0.394;2023-02-12T05:14:11;101209.22;;;0.93;59.58
17311;BME280;8773;43.300;0.394;2023-02-12T05:16:39;101206.50;;;0.94;59.73
17311;BME280;8773;43.300;0.394;2023-02-12T05:19:07;101209.94;;;0.96;59.54
17311;BME280;8773;43.300;0.394;2023-02-12T05:21:36;101206.34;;;0.99;59.68
17311;BME280;8773;43.300;0.394;2023-02-12T05:24:06;101214.84;;;1.05;59.64
17311;BME280;8773;43.300;0.394;2023-02-12T05:26:35;101211.09;;;1.13;59.40
17311;BME280;8773;43.300;0.394;2023-02-12T05:29:03;101203.31;;;1.09;59.24
17311;BME280;8773;43.300;0.394;2023-02-12T05:31:32;101208.44;;;1.13;59.54
17311;BME280;8773;43.300;0.394;2023-02-12T05:34:00;101206.78;;;1.10;59.21
17311;BME280;8773;43.300;0.394;2023-02-12T05:36:28;101204.47;;;1.02;59.38
17311;BME280;8773;43.300;0.394;2023-02-12T05:38:57;101204.50;;;1.01;59.32
17311;BME280;8773;43.300;0.394;2023-02-12T05:41:27;101198.50;;;0.97;59.04
17311;BME280;8773;43.300;0.394;2023-02-12T05:44:00;101208.06;;;1.00;59.40
17311;BME280;8773;43.300;0.394;2023-02-12T05:46:31;101207.31;;;0.96;59.44
17311;BME280;8773;43.300;0.394;2023-02-12T05:49:00;101208.16;;;0.97;59.33
17311;BME280;8773;43.300;0.394;2023-02-12T05:51:28;101210.88;;;0.95;59.56
17311;BME280;8773;43.300;0.394;2023-02-12T05:53:59;101211.22;;;0.86;59.71
17311;BME280;8773;43.300;0.394;2023-02-12T05:56:32;101217.38;;;0.85;60.06
17311;BME280;8773;43.300;0.394;2023-02-12T05:59:02;101215.59;;;0.86;60.05
17311;BME280;8773;43.300;0.394;2023-02-12T06:01:32;101215.72;;;0.83;60.20
17311;BME280;8773;43.300;0.394;2023-02-12T06:04:03;101221.03;;;0.81;60.28
17311;BME280;8773;43.300;0.394;2023-02-12T06:06:33;101197.00;;;0.68;59.83
17311;BME280;8773;43.300;0.394;2023-02-12T06:09:01;101225.50;;;0.79;59.87
17311;BME280;8773;43.300;0.394;2023-02-12T06:11:31;101228.00;;;0.82;60.15
17311;BME280;8773;43.300;0.394;2023-02-12T06:14:01;101228.06;;;0.81;60.10
17311;BME280;8773;43.300;0.394;2023-02-12T06:16:29;101223.78;;;0.78;59.97
17311;BME280;8773;43.300;0.394;2023-02-12T06:18:57;101216.81;;;0.77;59.81
17311;BME280;8773;43.300;0.394;2023-02-12T06:21:26;101226.56;;;0.73;59.95
17311;BME280;8773;43.300;0.394;2023-02-12T06:23:54;101225.34;;;0.60;60.28
17311;BME280;8773;43.300;0.394;2023-02-12T06:26:23;101232.75;;;0.49;60.88
17311;BME280;8773;43.300;0.394;2023-02-12T06:28:52;101230.16;;;0.48;60.69
17311;BME280;8773;43.300;0.394;2023-02-12T06:31:22;101236.22;;;0.50;60.49
17311;BME280;8773;43.300;0.394;2023-02-12T06:33:51;101232.75;;;0.49;60.59
17311;BME280;8773;43.300;0.394;2023-02-12T06:36:20;101233.28;;;0.59;60.14
17311;BME280;8773;43.300;0.394;2023-02-12T06:38:49;101235.75;;;0.63;60.26
17311;BME280;8773;43.300;0.394;2023-02-12T06:41:20;101241.75;;;0.67;59.85
17311;BME280;8773;43.300;0.394;2023-02-12T06:43:49;101246.13;;;0.66;60.00
17311;BME280;8773;43.300;0.394;2023-02-12T06:46:19;101232.81;;;0.71;59.86
17311;BME280;8773;43.300;0.394;2023-02-12T06:48:47;101240.53;;;0.75;59.52
17311;BME280;8773;43.300;0.394;2023-02-12T06:51:17;101236.38;;;0.70;59.90
17311;BME280;8773;43.300;0.394;2023-02-12T06:53:48;101240.63;;;0.72;59.71
17311;BME280;8773;43.300;0.394;2023-02-12T06:56:17;101241.38;;;0.76;59.59
17311;BME280;8773;43.300;0.394;2023-02-12T06:58:46;101241.38;;;0.76;59.58
17311;BME280;8773;43.300;0.394;2023-02-12T07:01:21;101241.44;;;0.74;59.30
17311;BME280;8773;43.300;0.394;2023-02-12T07:03:51;101248.66;;;0.69;59.61
17311;BME280;8773;43.300;0.394;2023-02-12T07:06:20;101253.84;;;0.71;59.79
17311;BME280;8773;43.300;0.394;2023-02-12T07:08:48;101244.81;;;0.78;59.67
17311;BME280;8773;43.300;0.394;2023-02-12T07:11:17;101253.34;;;0.85;59.40
17311;BME280;8773;43.300;0.394;2023-02-12T07:13:45;101258.19;;;0.95;58.96
17311;BME280;8773;43.300;0.394;2023-02-12T07:16:14;101256.19;;;1.02;58.60
17311;BME280;8773;43.300;0.394;2023-02-12T07:18:44;101255.00;;;1.10;58.71
17311;BME280;8773;43.300;0.394;2023-02-12T07:21:14;101257.63;;;1.10;58.36
17311;BME280;8773;43.300;0.394;2023-02-12T07:23:45;101257.47;;;1.14;58.53
17311;BME280;8773;43.300;0.394;2023-02-12T07:26:18;101266.06;;;1.19;58.16
17311;BME280;8773;43.300;0.394;2023-02-12T07:28:46;101265.25;;;1.17;58.42
17311;BME280;8773;43.300;0.394;2023-02-12T07:31:16;101257.38;;;1.17;58.25
17311;BME280;8773;43.300;0.394;2023-02-12T07:33:46;101264.41;;;1.16;58.69
17311;BME280;8773;43.300;0.394;2023-02-12T07:36:17;101263.81;;;1.09;58.24
17311;BME280;8773;43.300;0.394;2023-02-12T07:38:45;101271.81;;;1.06;58.65
17311;BME280;8773;43.300;0.394;2023-02-12T07:41:16;101271.63;;;1.11;58.12
17311;BME280;8773;43.300;0.394;2023-02-12T07:43:46;101270.34;;;1.21;58.21
17311;BME280;8773;43.300;0.394;2023-02-12T07:46:16;101274.69;;;1.22;57.77
17311;BME280;8773;43.300;0.394;2023-02-12T07:48:47;101274.41;;;1.30;57.53
17311;BME280;8773;43.300;0.394;2023-02-12T07:51:16;101273.94;;;1.42;56.85
17311;BME280;8773;43.300;0.394;2023-02-12T07:53:45;101279.00;;;1.47;56.75
17311;BME280;8773;43.300;0.394;2023-02-12T07:56:15;101279.31;;;1.61;56.79
17311;BME280;8773;43.300;0.394;2023-02-12T07:58:45;101288.56;;;1.71;56.19
17311;BME280;8773;43.300;0.394;2023-02-12T08:01:16;101291.69;;;1.81;56.01
17311;BME280;8773;43.300;0.394;2023-02-12T08:03:46;101289.94;;;2.01;55.33
17311;BME280;8773;43.300;0.394;2023-02-12T08:06:18;101290.84;;;2.00;55.64
17311;BME280;8773;43.300;0.394;2023-02-12T08:08:46;101293.97;;;2.10;55.39
17311;BME280;8773;43.300;0.394;2023-02-12T08:11:15;101289.91;;;2.23;54.78
17311;BME280;8773;43.300;0.394;2023-02-12T08:13:44;101289.66;;;2.29;54.94
17311;BME280;8773;43.300;0.394;2023-02-12T08:16:14;101285.84;;;2.36;54.61
17311;BME280;8773;43.300;0.394;2023-02-12T08:18:43;101278.16;;;2.51;54.49
17311;BME280;8773;43.300;0.394;2023-02-12T08:21:15;101289.09;;;2.62;53.41
17311;BME280;8773;43.300;0.394;2023-02-12T08:23:44;101276.81;;;2.81;52.92
17311;BME280;8773;43.300;0.394;2023-02-12T08:26:15;101290.88;;;2.82;52.59
17311;BME280;8773;43.300;0.394;2023-02-12T08:28:44;101277.53;;;2.85;53.49
17311;BME280;8773;43.300;0.394;2023-02-12T08:31:15;101279.41;;;3.01;52.58
17311;BME280;8773;43.300;0.394;2023-02-12T08:33:46;101278.84;;;3.14;51.95
17311;BME280;8773;43.300;0.394;2023-02-12T08:36:18;101274.34;;;3.34;51.99
17311;BME280;8773;43.300;0.394;2023-02-12T08:38:47;101275.03;;;3.57;51.12
17311;BME280;8773;43.300;0.394;2023-02-12T08:41:19;101273.44;;;3.71;50.94
17311;BME280;8773;43.300;0.394;2023-02-12T08:43:48;101273.47;;;3.89;51.21
17311;BME280;8773;43.300;0.394;2023-02-12T08:46:19;101271.19;;;4.00;50.64
17311;BME280;8773;43.300;0.394;2023-02-12T08:48:48;101281.66;;;4.19;50.67
17311;BME280;8773;43.300;0.394;2023-02-12T08:51:21;101269.38;;;4.35;49.89
17311;BME280;8773;43.300;0.394;2023-02-12T08:53:52;101273.44;;;4.42;50.02
17311;BME280;8773;43.300;0.394;2023-02-12T08:56:20;101265.88;;;4.52;49.56
17311;BME280;8773;43.300;0.394;2023-02-12T08:58:49;101266.53;;;4.72;49.04
17311;BME280;8773;43.300;0.394;2023-02-12T09:01:19;101271.25;;;4.83;48.95
17311;BME280;8773;43.300;0.394;2023-02-12T09:03:48;101270.69;;;4.94;48.51
17311;BME280;8773;43.300;0.394;2023-02-12T09:06:17;101272.84;;;5.03;48.42
17311;BME280;8773;43.300;0.394;2023-02-12T09:08:47;101267.13;;;5.10;48.38
17311;BME280;8773;43.300;0.394;2023-02-12T09:11:17;101243.28;;;5.10;47.90
17311;BME280;8773;43.300;0.394;2023-02-12T09:13:46;101261.44;;;5.34;47.21
17311;BME280;8773;43.300;0.394;2023-02-12T09:16:14;101269.88;;;5.56;46.58
17311;BME280;8773;43.300;0.394;2023-02-12T09:18:42;101269.59;;;5.61;46.68
17311;BME280;8773;43.300;0.394;2023-02-12T09:21:13;101273.88;;;5.63;46.53
17311;BME280;8773;43.300;0.394;2023-02-12T09:23:43;101272.50;;;5.72;46.59
17311;BME280;8773;43.300;0.394;2023-02-12T09:26:14;101270.97;;;5.84;46.28
17311;BME280;8773;43.300;0.394;2023-02-12T09:28:42;101263.03;;;5.98;46.03
17311;BME280;8773;43.300;0.394;2023-02-12T09:31:12;101263.19;;;6.10;45.43
17311;BME280;8773;43.300;0.394;2023-02-12T09:33:41;101269.94;;;6.16;44.96
17311;BME280;8773;43.300;0.394;2023-02-12T09:36:12;101267.69;;;6.24;45.50
17311;BME280;8773;43.300;0.394;2023-02-12T09:38:41;101263.25;;;6.25;44.85
17311;BME280;8773;43.300;0.394;2023-02-12T09:41:35;101266.47;;;6.30;45.17
17311;BME280;8773;43.300;0.394;2023-02-12T09:44:16;101253.50;;;6.39;45.24
17311;BME280;8773;43.300;0.394;2023-02-12T09:46:50;101261.53;;;6.68;45.01
17311;BME280;8773;43.300;0.394;2023-02-12T09:49:31;101228.19;;;6.64;44.78
17311;BME280;8773;43.300;0.394;2023-02-12T09:52:05;101257.56;;;7.03;43.74
17311;BME280;8773;43.300;0.394;2023-02-12T09:54:41;101248.84;;;7.01;42.70
17311;BME280;8773;43.300;0.394;2023-02-12T09:57:16;101257.44;;;7.19;43.18
17311;BME280;8773;43.300;0.394;2023-02-12T09:59:51;101253.78;;;7.49;42.29
17311;BME280;8773;43.300;0.394;2023-02-12T10:02:22;101253.88;;;7.74;42.56
17311;BME280;8773;43.300;0.394;2023-02-12T10:04:52;101244.91;;;7.89;41.81
17311;BME280;8773;43.300;0.394;2023-02-12T10:07:39;101254.94;;;8.11;41.99
17311;BME280;8773;43.300;0.394;2023-02-12T10:10:24;101247.47;;;8.30;41.35
17311;BME280;8773;43.300;0.394;2023-02-12T10:13:03;101249.19;;;8.44;41.00
17311;BME280;8773;43.300;0.394;2023-02-12T10:15:37;101247.25;;;8.59;40.64
17311;BME280;8773;43.300;0.394;2023-02-12T10:18:28;101260.03;;;8.79;40.04
17311;BME280;8773;43.300;0.394;2023-02-12T10:21:07;101253.88;;;8.91;39.52
17311;BME280;8773;43.300;0.394;2023-02-12T10:24:04;101257.13;;;9.07;39.79
17311;BME280;8773;43.300;0.394;2023-02-12T10:26:40;101254.22;;;9.23;39.51
17311;BME280;8773;43.300;0.394;2023-02-12T10:29:21;101251.03;;;9.31;39.54
17311;BME280;8773;43.300;0.394;2023-02-12T10:31:52;101247.34;;;9.44;38.91
17311;BME280;8773;43.300;0.394;2023-02-12T10:34:32;101249.22;;;9.55;38.52
17311;BME280;8773;43.300;0.394;2023-02-12T10:37:03;101247.41;;;9.56;38.64
17311;BME280;8773;43.300;0.394;2023-02-12T10:39:35;101239.38;;;9.68;38.31
17311;BME280;8773;43.300;0.394;2023-02-12T10:42:09;101245.25;;;9.85;38.16
17311;BME280;8773;43.300;0.394;2023-02-12T10:44:40;101244.13;;;10.00;38.02
17311;BME280;8773;43.300;0.394;2023-02-12T10:47:13;101239.06;;;10.08;37.52
17311;BME280;8773;43.300;0.394;2023-02-12T10:49:45;101240.09;;;10.18;37.39
17311;BME280;8773;43.300;0.394;2023-02-12T10:52:23;101240.31;;;10.26;37.10
17311;BME280;8773;43.300;0.394;2023-02-12T10:54:57;101236.97;;;10.35;36.94
17311;BME280;8773;43.300;0.394;2023-02-12T10:57:28;101235.28;;;10.46;35.72
17311;BME280;8773;43.300;0.394;2023-02-12T11:00:22;101228.88;;;10.59;36.91
17311;BME280;8773;43.300;0.394;2023-02-12T11:03:08;101224.88;;;10.65;35.66
17311;BME280;8773;43.300;0.394;2023-02-12T11:05:45;101224.72;;;10.66;33.92
17311;BME280;8773;43.300;0.394;2023-02-12T11:08:29;101209.56;;;10.78;33.92
17311;BME280;8773;43.300;0.394;2023-02-12T11:11:07;101212.00;;;10.92;33.58
17311;BME280;8773;43.300;0.394;2023-02-12T11:13:38;101207.41;;;11.05;32.50
17311;BME280;8773;43.300;0.394;2023-02-12T11:16:09;101202.66;;;11.09;32.06
17311;BME280;8773;43.300;0.394;2023-02-12T11:18:38;101192.03;;;11.19;31.99
17311;BME280;8773;43.300;0.394;2023-02-12T11:21:07;101192.78;;;11.32;30.64
17311;BME280;8773;43.300;0.394;2023-02-12T11:23:38;101197.25;;;11.20;30.08
17311;BME280;8773;43.300;0.394;2023-02-12T11:26:23;101192.38;;;11.48;30.13
17311;BME280;8773;43.300;0.394;2023-02-12T11:28:53;101184.56;;;11.56;30.68
17311;BME280;8773;43.300;0.394;2023-02-12T11:31:27;101181.84;;;11.67;31.03
17311;BME280;8773;43.300;0.394;2023-02-12T11:34:08;101183.88;;;11.74;29.61
17311;BME280;8773;43.300;0.394;2023-02-12T11:36:39;101176.78;;;11.85;29.65
17311;BME280;8773;43.300;0.394;2023-02-12T11:39:17;101163.38;;;11.96;29.33
17311;BME280;8773;43.300;0.394;2023-02-12T11:41:50;101162.69;;;12.03;29.11
17311;BME280;8773;43.300;0.394;2023-02-12T11:44:21;101160.34;;;12.10;29.13
17311;BME280;8773;43.300;0.394;2023-02-12T11:46:56;101161.19;;;12.11;29.99
17311;BME280;8773;43.300;0.394;2023-02-12T11:49:28;101154.31;;;11.97;29.91
17311;BME280;8773;43.300;0.394;2023-02-12T11:52:00;101153.53;;;12.06;29.68
17311;BME280;8773;43.300;0.394;2023-02-12T11:54:32;101155.44;;;12.15;28.49
17311;BME280;8773;43.300;0.394;2023-02-12T11:57:01;101155.13;;;12.29;29.42
17311;BME280;8773;43.300;0.394;2023-02-12T11:59:33;101149.97;;;12.47;28.53
17311;BME280;8773;43.300;0.394;2023-02-12T12:02:15;101140.97;;;12.48;27.72
17311;BME280;8773;43.300;0.394;2023-02-12T12:04:45;101139.38;;;12.46;26.91
17311;BME280;8773;43.300;0.394;2023-02-12T12:07:19;101134.13;;;12.55;27.58
17311;BME280;8773;43.300;0.394;2023-02-12T12:09:56;101136.25;;;12.61;26.73
17311;BME280;8773;43.300;0.394;2023-02-12T12:12:34;101127.50;;;12.59;25.79
17311;BME280;8773;43.300;0.394;2023-02-12T12:15:09;101126.00;;;12.66;25.47
17311;BME280;8773;43.300;0.394;2023-02-12T12:18:10;101116.94;;;12.58;24.48
17311;BME280;8773;43.300;0.394;2023-02-12T12:21:10;101116.28;;;12.75;25.73
17311;BME280;8773;43.300;0.394;2023-02-12T12:23:43;101107.41;;;12.84;26.03
17311;BME280;8773;43.300;0.394;2023-02-12T12:26:19;101115.63;;;12.92;25.82
17311;BME280;8773;43.300;0.394;2023-02-12T12:28:51;101109.81;;;12.87;23.84
17311;BME280;8773;43.300;0.394;2023-02-12T12:31:26;101105.44;;;12.86;24.17
17311;BME280;8773;43.300;0.394;2023-02-12T12:34:02;101104.38;;;13.08;25.21
17311;BME280;8773;43.300;0.394;2023-02-12T12:37:09;101088.72;;;13.23;24.93
17311;BME280;8773;43.300;0.394;2023-02-12T12:39:50;101083.75;;;13.28;25.45
17311;BME280;8773;43.300;0.394;2023-02-12T12:42:46;101084.31;;;13.31;25.57
17311;BME280;8773;43.300;0.394;2023-02-12T12:45:47;101087.00;;;13.31;25.43
17311;BME280;8773;43.300;0.394;2023-02-12T12:48:27;101077.97;;;13.42;24.74
17311;BME280;8773;43.300;0.394;2023-02-12T12:51:17;101064.28;;;13.45;24.72
17311;BME280;8773;43.300;0.394;2023-02-12T12:53:59;101065.28;;;13.63;24.80
17311;BME280;8773;43.300;0.394;2023-02-12T12:56:44;101064.72;;;13.69;24.62
17311;BME280;8773;43.300;0.394;2023-02-12T12:59:39;101064.00;;;13.77;24.87
17311;BME280;8773;43.300;0.394;2023-02-12T13:02:44;101062.44;;;13.74;24.38
17311;BME280;8773;43.300;0.394;2023-02-12T13:08:40;101048.00;;;13.85;24.35
17311;BME280;8773;43.300;0.394;2023-02-12T13:11:25;101036.00;;;13.80;24.09
17311;BME280;8773;43.300;0.394;2023-02-12T13:14:12;101035.97;;;13.99;24.19
17311;BME280;8773;43.300;0.394;2023-02-12T13:16:46;101042.44;;;14.06;24.48
17311;BME280;8773;43.300;0.394;2023-02-12T13:19:22;101029.81;;;14.16;24.21
17311;BME280;8773;43.300;0.394;2023-02-12T13:21:56;101031.06;;;14.22;23.81
17311;BME280;8773;43.300;0.394;2023-02-12T13:24:33;101035.38;;;14.05;23.92
17311;BME280;8773;43.300;0.394;2023-02-12T13:27:06;101038.53;;;14.28;24.38
17311;BME280;8773;43.300;0.394;2023-02-12T13:29:42;101034.81;;;14.38;23.20
17311;BME280;8773;43.300;0.394;2023-02-12T13:32:15;101027.09;;;14.53;23.98
17311;BME280;8773;43.300;0.394;2023-02-12T13:34:49;101015.13;;;14.65;24.35
17311;BME280;8773;43.300;0.394;2023-02-12T13:37:31;101018.06;;;14.72;23.99
17311;BME280;8773;43.300;0.394;2023-02-12T13:40:06;101023.25;;;14.83;23.87
17311;BME280;8773;43.300;0.394;2023-02-12T13:42:46;101007.38;;;14.90;23.86